Weather reports worldwide

Advertisment
Fehmarnbelt/Grosstonne, Germany (10043): temperature & dewpoint: 06.11.2019 16:00:00 - 12.11.2019 16:00:00 (CET)Fehmarnbelt/Grosstonne, Germany (10043): water temperature: 06.11.2019 16:00:00 - 12.11.2019 16:00:00 (CET)Fehmarnbelt/Grosstonne, Germany (10043): wind speed: 06.11.2019 16:00:00 - 12.11.2019 16:00:00 (CET)Fehmarnbelt/Grosstonne, Germany (10043): wind direction: 06.11.2019 16:00:00 - 12.11.2019 16:00:00 (CET)Fehmarnbelt/Grosstonne, Germany (10043): reduced air pressure: 06.11.2019 16:00:00 - 12.11.2019 16:00:00 (CET)
Date & Time tt [°C] td [°C] tw [°C] ff [km/h] ff [kn] dd ppp [hPa]
12.11.2019 16:00:00 8,0 3,5 10,3 32 17 S 1002,1
12.11.2019 15:00:00 7,7 3,2 9,9 32 18 SSW 1001,5
12.11.2019 14:00:00 8,5 3,2 10,7 40 22 SSW 1001,3
12.11.2019 13:00:00 8,2 3,7 10,5 36 19 SSW 1001,3
12.11.2019 12:00:00 8,7 3,4 10,5 44 24 SSW 1001,3
12.11.2019 11:00:00 7,7 3,7 10,1 39 21 S 1001,0
12.11.2019 10:00:00 6,7 3,5 10,2 41 22 S 1001,4
12.11.2019 09:00:00 6,5 4,0 10,2 37 20 S 1001,2
12.11.2019 08:00:00 6,0 3,7 10,3 35 19 S 1001,4
12.11.2019 07:00:00 5,5 3,4 10,4 36 19 S 1000,9
12.11.2019 06:00:00 5,7 3,5 10,2 37 20 S 1000,6
12.11.2019 05:00:00 5,4 2,5 10,2 41 22 S 1000,7
12.11.2019 04:00:00 5,5 3,0 10,4 37 20 S 1001,1
12.11.2019 03:00:00 5,4 2,7 10,3 39 21 S 1001,3
12.11.2019 02:00:00 5,7 3,2 10,2 40 22 S 1001,4
12.11.2019 01:00:00 5,5 2,7 10,2 41 22 S 1001,5
12.11.2019 00:00:00 5,9 3,5 10,2 39 21 S 1002,4
11.11.2019 23:00:00 5,4 3,0 10,2 42 23 SSE 1002,7
11.11.2019 22:00:00 5,5 3,2 10,3 46 25 S 1003,0
11.11.2019 21:00:00 4,9 2,7 10,4 41 22 S 1003,6
11.11.2019 20:00:00 4,4 2,2 10,5 41 22 SSE 1004,1
11.11.2019 19:00:00 4,5 2,7 10,5 38 20 SSE 1004,8
11.11.2019 18:00:00 4,2 2,5 10,5 40 22 SSE 1005,3
11.11.2019 17:00:00 4,5 3,0 10,5 40 22 S 1005,7
11.11.2019 16:00:00 4,7 3,0 10,6 41 22 S 1005,8
11.11.2019 15:00:00 5,0 2,5 10,6 42 23 S 1006,1
11.11.2019 14:00:00 6,2 2,5 10,6 36 19 S 1007,2
11.11.2019 13:00:00 6,4 3,2 10,6 33 18 S 1008,0
11.11.2019 12:00:00 6,7 3,4 10,6 35 19 S 1008,7
11.11.2019 11:00:00 6,5 3,0 10,7 32 17 S 1009,0
11.11.2019 10:00:00 6,5 3,4 10,7 34 18 S 1009,2
11.11.2019 09:00:00 6,0 3,4 11,0 34 18 S 1009,4
11.11.2019 08:00:00 6,0 4,0 11,0 36 20 S 1009,6
11.11.2019 07:00:00 5,4 3,2 10,9 28 15 SSW 1010,1
11.11.2019 06:00:00 5,9 3,2 10,8 29 16 SSW 1010,6
11.11.2019 05:00:00 5,7 3,5 10,5 31 17 SSW 1011,1
11.11.2019 04:00:00 6,0 4,0 10,6 29 16 SSW 1011,5
11.11.2019 03:00:00 6,2 4,5 10,5 28 15 SSW 1011,6
11.11.2019 02:00:00 6,2 4,0 10,4 31 17 SSW 1011,8
11.11.2019 01:00:00 6,4 4,2 10,4 33 18 SSW 1012,2
11.11.2019 00:00:00 6,5 4,0 10,5 34 19 SSW 1012,4
10.11.2019 23:00:00 6,5 4,0 10,4 28 15 SSW 1012,6
10.11.2019 22:00:00 7,0 4,0 10,4 35 19 SSW 1013,0
10.11.2019 21:00:00 6,7 4,2 10,4 30 16 SSW 1013,4
10.11.2019 20:00:00 6,9 4,5 10,4 28 15 SSW 1013,5
10.11.2019 19:00:00 7,4 4,5 10,4 25 14 SSW 1013,5
10.11.2019 18:00:00 7,4 4,0 10,4 19 11 S 1013,9
10.11.2019 17:00:00 7,5 3,4 10,4 11 6 SSW 1013,8
10.11.2019 16:00:00 8,7 3,7 10,4 12 7 SSW 1013,4
10.11.2019 15:00:00 10,4 3,4 10,4 16 8 WSW 1013,0
10.11.2019 14:00:00 10,0 3,5 10,3 17 9 WSW 1013,1
10.11.2019 13:00:00 10,0 4,0 10,2 22 12 WSW 1012,9
10.11.2019 12:00:00 8,4 4,7 10,3 18 10 WSW 1012,9
10.11.2019 11:00:00 7,5 4,5 10,4 19 11 SW 1013,0
10.11.2019 10:00:00 7,0 5,2 10,5 15 8 SSW 1012,6
10.11.2019 09:00:00 8,2 5,0 10,6 25 14 SW 1011,9
10.11.2019 08:00:00 7,0 5,2 10,5 19 11 SW 1011,4
10.11.2019 07:00:00 6,7 5,2 10,5 20 11 SW 1010,7
10.11.2019 06:00:00 7,0 5,5 10,5 15 8 SSW 1010,0
10.11.2019 05:00:00 7,2 5,7 10,6 18 10 SW 1009,7
10.11.2019 04:00:00 7,0 5,5 10,6 16 9 SSW 1009,3
10.11.2019 03:00:00 7,7 4,2 10,6 14 7 W 1008,9
10.11.2019 02:00:00 7,7 4,7 10,7 19 10 W 1008,7
10.11.2019 01:00:00 7,7 5,5 10,7 26 14 WSW 1008,4
10.11.2019 00:00:00 7,5 5,0 10,7 28 15 WSW 1008,0
09.11.2019 23:00:00 7,7 6,2 10,7 31 17 WSW 1007,7
09.11.2019 22:00:00 8,0 4,7 10,7 24 13 SW 1007,4
09.11.2019 21:00:00 8,5 4,0 10,7 16 9 W 1007,3
09.11.2019 20:00:00 7,7 3,2 10,7 8 4 WNW 1007,2
09.11.2019 19:00:00 7,0 4,0 10,7 14 8 W 1007,3
09.11.2019 18:00:00 8,5 5,9 10,7 16 8 WNW 1007,0
09.11.2019 17:00:00 8,7 5,5 10,8 19 10 NW 1006,7
09.11.2019 16:00:00 8,7 5,0 10,7 23 13 WNW 1006,3
09.11.2019 15:00:00 8,7 5,9 10,8 20 11 WNW 1006,1
09.11.2019 14:00:00 8,7 6,2 10,8 19 10 NW 1005,9
09.11.2019 13:00:00 8,5 5,9 10,8 19 10 NNW 1005,8
09.11.2019 12:00:00 8,5 6,2 10,7 25 14 NNW 1006,0
09.11.2019 11:00:00 8,5 6,0 10,7 20 11 NW 1006,7
09.11.2019 10:00:00 8,4 5,4 10,7 24 13 NW 1006,5
09.11.2019 09:00:00 8,2 5,4 10,7 18 10 NNW 1006,6
09.11.2019 08:00:00 8,0 6,5 10,7 13 7 NNW 1007,0
09.11.2019 07:00:00 7,9 6,4 10,7 11 6 NNW 1006,7
09.11.2019 06:00:00 7,7 6,2 10,8 13 7 NE 1006,9
09.11.2019 05:00:00 7,9 6,2 10,9 15 8 N 1006,9
09.11.2019 04:00:00 8,0 6,7 11,0 23 12 NE 1007,3
09.11.2019 03:00:00 8,2 6,5 11,0 20 11 NE 1007,5
09.11.2019 02:00:00 8,2 6,5 10,9 16 9 NNE 1007,7
09.11.2019 01:00:00 8,5 5,5 11,0 15 8 NNE 1007,7
09.11.2019 00:00:00 8,5 6,4 11,1 13 7 NNE 1008,3
08.11.2019 23:00:00 9,0 6,9 11,0 13 7 ENE 1008,6
08.11.2019 22:00:00 9,2 5,0 11,0 3 2 NE 1008,9
08.11.2019 21:00:00 8,9 5,2 10,9 6 3 W 1008,7
08.11.2019 20:00:00 8,7 6,2 10,8 9 5 WSW 1008,6
08.11.2019 19:00:00 8,7 5,9 10,8 9 5 S 1008,4
08.11.2019 18:00:00 8,7 5,4 10,9 8 4 S 1008,7
08.11.2019 17:00:00 8,4 5,0 10,9 7 4 SSE 1008,5
08.11.2019 16:00:00 8,7 5,5 11,0 5 3 SSE 1008,1
08.11.2019 15:00:00 9,9 5,2 11,1 5 3 SSW 1007,9
08.11.2019 14:00:00 10,7 5,7 11,2 7 4 SSW 1008,1
08.11.2019 13:00:00 9,7 5,7 11,2 12 7 S 1008,1
08.11.2019 12:00:00 10,0 5,5 11,0 15 8 SSW 1008,0
08.11.2019 11:00:00 8,7 5,5 11,0 21 12 SW 1008,1
08.11.2019 10:00:00 9,2 5,9 11,0 20 11 SSW 1007,7
08.11.2019 09:00:00 7,7 5,5 11,0 32 18 SW 1006,7
08.11.2019 08:00:00 7,7 5,7 11,0 33 18 SW 1006,3
08.11.2019 07:00:00 7,7 6,0 11,1 34 18 SW 1005,3
08.11.2019 06:00:00 8,0 6,4 11,3 32 17 SW 1004,6
08.11.2019 05:00:00 8,5 6,5 11,3 37 20 SW 1004,4
08.11.2019 04:00:00 8,9 7,2 11,2 35 19 SW 1003,8
08.11.2019 03:00:00 9,4 7,5 11,1 35 19 SW 1003,1
08.11.2019 02:00:00 9,4 8,2 11,0 26 14 SSW 1002,6
08.11.2019 01:00:00 9,7 8,4 11,1 26 14 SSE 1002,2
08.11.2019 00:00:00 9,5 8,7 11,1 35 19 SE 1002,2
07.11.2019 23:00:00 9,5 8,7 11,1 32 18 ESE 1002,3
07.11.2019 22:00:00 8,7 7,9 11,1 34 18 ESE 1002,5
07.11.2019 21:00:00 9,0 7,9 11,1 32 17 ESE 1002,6
07.11.2019 20:00:00 8,2 6,7 11,0 29 16 ESE 1002,8
07.11.2019 19:00:00 7,5 5,2 10,9 31 17 ESE 1003,1
07.11.2019 18:00:00 7,2 4,5 10,9 29 16 SE 1002,9
07.11.2019 17:00:00 6,7 4,0 11,1 28 15 SE 1003,0
07.11.2019 16:00:00 7,2 4,0 11,0 23 12 SE 1002,7
07.11.2019 15:00:00 7,7 3,7 11,1 21 12 SE 1002,7
07.11.2019 14:00:00 9,0 4,0 11,0 22 12 SSE 1002,5
07.11.2019 13:00:00 8,0 4,5 10,8 9 5 SE 1002,6
07.11.2019 12:00:00 7,7 5,0 10,7 11 6 SW 1002,9
07.11.2019 11:00:00 7,7 5,2 10,8 14 7 SSW 1002,8
07.11.2019 10:00:00 8,5 4,7 10,9 13 7 S 1002,8
07.11.2019 09:00:00 7,0 5,2 10,8 14 8 S 1002,6
07.11.2019 08:00:00 6,9 5,0 10,7 13 7 SSW 1002,4
07.11.2019 07:00:00 7,0 4,2 10,6 10 6 W 1002,0
07.11.2019 06:00:00 6,7 3,7 10,5 12 7 WSW 1001,9
07.11.2019 05:00:00 7,0 4,9 10,6 17 9 SW 1001,8
07.11.2019 04:00:00 7,0 4,5 10,6 9 5 WSW 1001,8
07.11.2019 03:00:00 7,0 5,0 10,7 15 8 SW 1001,8
07.11.2019 02:00:00 6,7 5,2 10,7 19 10 S 1001,9
07.11.2019 01:00:00 6,5 4,7 10,6 10 6 SE 1001,9
07.11.2019 00:00:00 6,0 5,4 10,7 13 7 SE 1002,0
06.11.2019 23:00:00 6,2 5,2 10,6 14 8 S 1002,1
06.11.2019 22:00:00 6,7 4,0 10,7 11 6 SSE 1002,1
06.11.2019 21:00:00 6,5 3,5 10,7 7 4 NNE 1001,9
06.11.2019 20:00:00 6,5 3,7 10,7 7 4 E 1001,7
06.11.2019 19:00:00 6,5 3,9 10,8 10 5 ENE 1001,6
06.11.2019 18:00:00 6,9 4,2 10,8 15 8 ENE 1001,5
06.11.2019 17:00:00 6,9 3,4 10,8 7 4 N 1001,2
06.11.2019 16:00:00 6,7 3,5 10,7 11 6 NW 1000,9

tt = temperature
td = dewpoint
tw = water temperature
ff = wind speed
dd = wind direction
ppp = reduced air pressure

Next stations